TAF Text Data
IDs:
Format:
Raw Decoded Include METAR

Data at: 0656 UTC 22 Jan 2021

Region: TOP
KATL 220520Z 2206/2312 32005KT P6SM SCT007 SCT020 BKN150
  TEMPO 2207/2211 6SM -RA BR BKN020
  FM221100 30004KT 4SM BR VCSH OVC040
  FM221600 32005KT P6SM OVC060
  FM221900 32007KT P6SM BKN080 BKN150
  FM222100 32007KT P6SM SCT150
  FM230300 33006KT P6SM SKC


KBOS 220530Z 2206/2312 22007KT P6SM BKN080
  FM220630 24007KT P6SM VCSH BKN070
  FM221000 26007KT P6SM OVC070
  FM221500 29008KT P6SM SCT150
  FM222000 30008KT P6SM BKN060
  FM230100 29011G20KT P6SM BKN060


KBWI 220531Z 2206/2312 22005KT P6SM FEW250
  FM221400 28008G16KT P6SM FEW250
  FM221600 29015G25KT P6SM SCT050
  FM230000 29010G18KT P6SM FEW050 BKN200


KCLE 220545Z 2206/2312 26010G19KT P6SM SCT030 BKN050
  FM221000 27011G20KT P6SM SCT015 OVC025
  TEMPO 2214/2215 3SM -SHSN SCT008 OVC015
  FM221500 31012G22KT P6SM VCSH SCT015 OVC025
  FM222100 30013G23KT P6SM SCT025 BKN035


KCLT 220539Z 2206/2312 00000KT P6SM OVC250
  FM221400 25005KT P6SM OVC250
  FM222300 29004KT P6SM SCT250
  FM230200 33004KT P6SM FEW250


KCVG 220531Z 2206/2312 25008KT P6SM FEW250
  FM221400 31010KT P6SM BKN035
  TEMPO 2215/2218 BKN025
  FM222000 31010KT P6SM SCT035
  FM230300 33006KT P6SM SKC


KDCA 220531Z 2206/2312 22005KT P6SM FEW250
  FM221400 29008G16KT P6SM FEW250
  FM221600 31014G25KT P6SM SCT050
  FM230000 31010G18KT P6SM FEW050 BKN200


KDEN 220537Z 2206/2312 15012KT P6SM FEW120 SCT220
  FM220730 21011KT P6SM FEW120 BKN220
  FM221500 VRB06KT P6SM BKN220
  FM221900 08009KT P6SM FEW140 OVC220
  FM230100 15005KT P6SM FEW120 OVC220
  FM230500 21010KT P6SM BKN220


KDFW 220520Z 2206/2312 13003KT 1SM BR BKN004
  TEMPO 2207/2211 1/2SM FG OVC003
  FM221500 05008KT 6SM BR OVC008
  FM221800 04008KT P6SM OVC015


KDTW 220523Z 2206/2312 26013KT P6SM BKN060
  FM220800 32013G20KT P6SM BKN025 OVC040
  TEMPO 2208/2211 2SM -SN OVC015
  FM221200 32013G20KT P6SM SCT025 BKN040
  FM221600 29015G25KT P6SM -SHSN BKN040
  FM230100 29013KT P6SM SCT040


KEWR 220532Z 2206/2312 23005KT P6SM BKN070
  FM221200 26010KT P6SM SCT040
  FM221500 27016G23KT P6SM BKN040
  FM230100 30015G21KT P6SM SCT040


KFLL 220546Z 2206/2312 VRB04KT P6SM SCT250
  FM221500 22010KT P6SM SCT040 SCT250
  FM230100 VRB03KT P6SM FEW035 SCT250


KIAD 220531Z 2206/2312 22005KT P6SM FEW250
  FM221500 29014G25KT P6SM SCT050
  FM230000 31010G18KT P6SM FEW050 BKN200


KIAH 220520Z 2206/2312 VRB03KT 4SM -SHRA BR BKN004 OVC012
  FM220800 VRB03KT 3/4SM BR VCSH OVC003
  FM221500 VRB02KT 2SM BR OVC004
  FM221700 VRB03KT 5SM BR BKN009 OVC015
  FM222200 03001KT 6SM BR BKN020 OVC050
  FM230300 09003KT 4SM BR OVC009


KJFK 220532Z 2206/2312 24007KT P6SM BKN060
  FM221200 27012KT P6SM SCT040
  FM221500 28018G25KT P6SM BKN040
  FM230100 30015G22KT P6SM FEW040


KLAS 220544Z 2206/2312 21007KT P6SM FEW250
  FM221000 18005KT P6SM BKN250
  FM221800 17010G18KT P6SM SCT120 BKN250
  FM222200 19015G25KT P6SM VCSH SCT080 BKN120
  FM230100 19015G25KT P6SM -SHRA SCT060 BKN090
  PROB30 2301/2305 -TSRA BKN050CB
  FM230600 21012KT P6SM FEW060


KLAX 220557Z 2206/2312 12005KT P6SM BKN250
  FM221200 14006KT P6SM OVC015
  FM221800 23010KT P6SM OVC025
  FM222200 25015KT P6SM VCSH OVC025
  FM230200 26012KT P6SM -SHRA OVC025
  FM230700 27015KT P6SM VCSH OVC025


KLGA 220532Z 2206/2312 23007KT P6SM BKN060
  FM221200 27011KT P6SM SCT040
  FM221500 28016G23KT P6SM BKN040
  FM230100 30015G22KT P6SM SCT040


KMCO 220527Z 2206/2312 21004KT P6SM SCT045 SCT150 SCT250
  FM221500 24010KT P6SM SCT100 BKN250
  FM222300 25006KT P6SM SCT040 SCT080 BKN150
  FM230300 22004KT P6SM SCT030 BKN120


KMDW 220532Z 2206/2312 30016G26KT P6SM BKN035
  FM221000 32012G20KT P6SM SCT025
  FM221600 31011KT P6SM FEW250
  FM230200 31007KT P6SM SKC


KMEM 220521Z 2206/2312 08005KT P6SM OVC150
  FM220900 03003KT P6SM BKN200
  FM221200 03005KT P6SM BKN150
  FM221700 04009KT P6SM SCT250


KMIA 220546Z 2206/2312 VRB03KT P6SM FEW250
  FM221600 21009KT P6SM SCT040 SCT250
  FM230100 VRB03KT P6SM FEW035 FEW250


KMSP 220520Z 2206/2312 32009KT P6SM SKC
  FM221700 29005KT P6SM FEW120 FEW250
  FM222000 26006KT P6SM SKC


KORD 220532Z 2206/2312 30016G26KT P6SM BKN035
  FM221000 32012G20KT P6SM SCT025
  FM221600 31011KT P6SM FEW250
  FM230200 31007KT P6SM SKC


KPDX 220532Z 2206/2306 09012KT P6SM SCT030 BKN060
  TEMPO 2206/2210 4SM -SHRA OVC025
  FM221000 VRB03KT P6SM VCSH SCT030 BKN070
  FM221800 02006KT P6SM FEW050
  FM230300 VRB03KT P6SM SKC


KPHL 220532Z 2206/2312 24006KT P6SM FEW250
  FM221500 27011G19KT P6SM SCT050
  FM221800 28014G25KT P6SM BKN045
  FM222300 28010G18KT P6SM SCT060
  FM230100 29010KT P6SM SCT045


KPHX 220528Z 2206/2312 14004KT P6SM FEW050 FEW070
  FM220800 10004KT P6SM FEW020 BKN050
  TEMPO 2214/2217 SCT020
  FM221900 15007KT P6SM FEW050 SCT060
  FM222300 24007KT P6SM SCT070
  FM230700 12006KT P6SM SCT070


KPIT 220534Z 2206/2312 27010G17KT P6SM SCT250
  FM221200 27008G16KT P6SM BKN030
  FM221900 29011KT P6SM OVC025
  FM230000 30008G16KT P6SM BKN025


KSAN 220533Z 2206/2312 VRB04KT P6SM FEW015
  FM221000 18005KT P6SM BKN015
  FM222000 25012KT P6SM BKN022
  FM230800 25010KT P6SM VCSH BKN022


KSEA 220520Z 2206/2312 01010KT P6SM BKN050 OVC080
  FM220900 VRB03KT P6SM OVC020
  FM221800 03005KT P6SM BKN050
  FM222100 02005KT P6SM SCT080


KSFO 220533Z 2206/2312 VRB05KT P6SM FEW015 SCT100 BKN150
  FM220900 26006KT P6SM BKN020 BKN100
  FM221100 26006KT 5SM -SHRA BR OVC012
  FM221600 26010KT P6SM VCSH BKN015 OVC030
  FM221900 23013KT 5SM -SHRA VCTS BKN020CB BKN030
  FM222200 28010KT P6SM VCSH SCT030 BKN050
  FM230300 27008KT P6SM SCT025 BKN050


KSLC 220540Z 2206/2312 17004KT P6SM FEW070 BKN100
  FM222000 22010KT P6SM VCSH SCT030 BKN060
  FM230200 18006KT 4SM -RA SCT020 OVC040
  FM231100 20003KT 3SM -RASN OVC020


KSTL 220520Z 2206/2312 34011KT P6SM SKC
  FM230000 VRB04KT P6SM FEW250


KTPA 220525Z 2206/2312 VRB04KT P6SM SCT250
  FM221500 22010KT P6SM FEW050 BKN250
  FM230200 VRB05KT P6SM SCT010 BKN120
  FM231000 00000KT 5SM BR BKN010